sensor_id;sensor_type;location;lat;lon;timestamp;temperature;humidity
8105;DHT22;4095;48.942;9.104;2023-04-29T00:00:20;13.10;99.90
8105;DHT22;4095;48.942;9.104;2023-04-29T00:02:45;13.10;99.90
8105;DHT22;4095;48.942;9.104;2023-04-29T00:05:11;13.10;99.90
8105;DHT22;4095;48.942;9.104;2023-04-29T00:07:37;13.10;99.90
8105;DHT22;4095;48.942;9.104;2023-04-29T00:10:03;13.10;99.90
8105;DHT22;4095;48.942;9.104;2023-04-29T00:12:29;13.10;99.90
8105;DHT22;4095;48.942;9.104;2023-04-29T00:14:56;13.10;99.90
8105;DHT22;4095;48.942;9.104;2023-04-29T00:17:21;13.10;99.90
8105;DHT22;4095;48.942;9.104;2023-04-29T00:19:47;13.10;99.90
8105;DHT22;4095;48.942;9.104;2023-04-29T00:22:13;13.10;99.90
8105;DHT22;4095;48.942;9.104;2023-04-29T00:24:39;13.10;99.90
8105;DHT22;4095;48.942;9.104;2023-04-29T00:27:05;13.10;99.90
8105;DHT22;4095;48.942;9.104;2023-04-29T00:29:31;13.00;99.90
8105;DHT22;4095;48.942;9.104;2023-04-29T00:31:56;13.00;99.90
8105;DHT22;4095;48.942;9.104;2023-04-29T00:34:22;13.00;99.90
8105;DHT22;4095;48.942;9.104;2023-04-29T00:36:48;13.00;99.90
8105;DHT22;4095;48.942;9.104;2023-04-29T00:39:13;13.00;99.90
8105;DHT22;4095;48.942;9.104;2023-04-29T00:41:39;13.00;99.90
8105;DHT22;4095;48.942;9.104;2023-04-29T00:44:05;13.00;99.90
8105;DHT22;4095;48.942;9.104;2023-04-29T00:46:32;13.00;99.90
8105;DHT22;4095;48.942;9.104;2023-04-29T00:48:57;13.00;99.90
8105;DHT22;4095;48.942;9.104;2023-04-29T00:51:23;12.90;99.90
8105;DHT22;4095;48.942;9.104;2023-04-29T00:53:49;12.90;99.90
8105;DHT22;4095;48.942;9.104;2023-04-29T00:56:15;12.90;99.90
8105;DHT22;4095;48.942;9.104;2023-04-29T00:58:42;12.90;99.90
8105;DHT22;4095;48.942;9.104;2023-04-29T01:01:23;12.90;99.90
8105;DHT22;4095;48.942;9.104;2023-04-29T01:03:49;12.90;99.90
8105;DHT22;4095;48.942;9.104;2023-04-29T01:06:56;12.90;99.90
8105;DHT22;4095;48.942;9.104;2023-04-29T01:12:25;12.90;99.90
8105;DHT22;4095;48.942;9.104;2023-04-29T01:15:51;13.00;99.90
8105;DHT22;4095;48.942;9.104;2023-04-29T01:17:59;13.00;99.90
8105;DHT22;4095;48.942;9.104;2023-04-29T01:20:29;13.00;99.90
8105;DHT22;4095;48.942;9.104;2023-04-29T01:22:55;13.00;99.90
8105;DHT22;4095;48.942;9.104;2023-04-29T01:25:21;13.00;99.90
8105;DHT22;4095;48.942;9.104;2023-04-29T01:28:04;13.10;99.90
8105;DHT22;4095;48.942;9.104;2023-04-29T01:34:27;13.10;99.90
8105;DHT22;4095;48.942;9.104;2023-04-29T01:43:07;13.00;99.90
8105;DHT22;4095;48.942;9.104;2023-04-29T01:45:26;13.00;99.90
8105;DHT22;4095;48.942;9.104;2023-04-29T01:47:53;13.00;99.90
8105;DHT22;4095;48.942;9.104;2023-04-29T01:50:20;13.00;99.90
8105;DHT22;4095;48.942;9.104;2023-04-29T01:52:46;13.00;99.90
8105;DHT22;4095;48.942;9.104;2023-04-29T01:55:11;13.00;99.90
8105;DHT22;4095;48.942;9.104;2023-04-29T01:57:37;13.00;99.90
8105;DHT22;4095;48.942;9.104;2023-04-29T02:00:03;13.00;99.90
8105;DHT22;4095;48.942;9.104;2023-04-29T02:02:29;13.00;99.90
8105;DHT22;4095;48.942;9.104;2023-04-29T02:04:55;12.90;99.90
8105;DHT22;4095;48.942;9.104;2023-04-29T02:07:20;12.90;99.90
8105;DHT22;4095;48.942;9.104;2023-04-29T02:09:46;12.80;99.90
8105;DHT22;4095;48.942;9.104;2023-04-29T02:12:11;12.80;99.90
8105;DHT22;4095;48.942;9.104;2023-04-29T02:14:37;12.80;99.90
8105;DHT22;4095;48.942;9.104;2023-04-29T02:17:03;12.80;99.90
8105;DHT22;4095;48.942;9.104;2023-04-29T02:19:28;12.70;99.90
8105;DHT22;4095;48.942;9.104;2023-04-29T02:21:54;12.70;99.90
8105;DHT22;4095;48.942;9.104;2023-04-29T02:24:19;12.70;99.90
8105;DHT22;4095;48.942;9.104;2023-04-29T02:26:45;12.70;99.90
8105;DHT22;4095;48.942;9.104;2023-04-29T02:29:10;12.70;99.90
8105;DHT22;4095;48.942;9.104;2023-04-29T02:31:36;12.60;99.90
8105;DHT22;4095;48.942;9.104;2023-04-29T02:34:02;12.60;99.90
8105;DHT22;4095;48.942;9.104;2023-04-29T02:36:28;12.60;99.90
8105;DHT22;4095;48.942;9.104;2023-04-29T02:38:54;12.60;99.90
8105;DHT22;4095;48.942;9.104;2023-04-29T02:41:21;12.60;99.90
8105;DHT22;4095;48.942;9.104;2023-04-29T02:43:46;12.60;99.90
8105;DHT22;4095;48.942;9.104;2023-04-29T02:46:14;12.50;99.90
8105;DHT22;4095;48.942;9.104;2023-04-29T02:48:40;12.50;99.90
8105;DHT22;4095;48.942;9.104;2023-04-29T02:51:05;12.50;99.90
8105;DHT22;4095;48.942;9.104;2023-04-29T02:53:31;12.40;99.90
8105;DHT22;4095;48.942;9.104;2023-04-29T02:55:57;12.40;99.90
8105;DHT22;4095;48.942;9.104;2023-04-29T02:58:23;12.40;99.90
8105;DHT22;4095;48.942;9.104;2023-04-29T03:00:49;12.30;99.90
8105;DHT22;4095;48.942;9.104;2023-04-29T03:03:15;12.30;99.90
8105;DHT22;4095;48.942;9.104;2023-04-29T03:05:41;12.20;99.90
8105;DHT22;4095;48.942;9.104;2023-04-29T03:08:07;12.20;99.90
8105;DHT22;4095;48.942;9.104;2023-04-29T03:10:34;12.20;99.90
8105;DHT22;4095;48.942;9.104;2023-04-29T03:13:00;12.10;99.90
8105;DHT22;4095;48.942;9.104;2023-04-29T03:15:25;12.10;99.90
8105;DHT22;4095;48.942;9.104;2023-04-29T03:17:51;12.10;99.90
8105;DHT22;4095;48.942;9.104;2023-04-29T03:20:17;12.10;99.90
8105;DHT22;4095;48.942;9.104;2023-04-29T03:22:42;12.10;99.90
8105;DHT22;4095;48.942;9.104;2023-04-29T03:25:08;12.00;99.90
8105;DHT22;4095;48.942;9.104;2023-04-29T03:27:34;12.00;99.90
8105;DHT22;4095;48.942;9.104;2023-04-29T03:30:00;12.00;99.90
8105;DHT22;4095;48.942;9.104;2023-04-29T03:32:26;12.00;99.90
8105;DHT22;4095;48.942;9.104;2023-04-29T03:34:52;12.00;99.90
8105;DHT22;4095;48.942;9.104;2023-04-29T03:37:19;12.00;99.90
8105;DHT22;4095;48.942;9.104;2023-04-29T03:39:44;12.00;99.90
8105;DHT22;4095;48.942;9.104;2023-04-29T03:42:10;11.90;99.90
8105;DHT22;4095;48.942;9.104;2023-04-29T03:44:36;11.90;99.90
8105;DHT22;4095;48.942;9.104;2023-04-29T03:47:01;11.90;99.90
8105;DHT22;4095;48.942;9.104;2023-04-29T03:49:27;11.80;99.90
8105;DHT22;4095;48.942;9.104;2023-04-29T03:51:53;11.80;99.90
8105;DHT22;4095;48.942;9.104;2023-04-29T03:54:18;11.80;99.90
8105;DHT22;4095;48.942;9.104;2023-04-29T03:56:44;11.80;99.90
8105;DHT22;4095;48.942;9.104;2023-04-29T03:59:10;11.90;99.90
8105;DHT22;4095;48.942;9.104;2023-04-29T04:01:35;11.80;99.90
8105;DHT22;4095;48.942;9.104;2023-04-29T04:04:01;11.80;99.90
8105;DHT22;4095;48.942;9.104;2023-04-29T04:06:26;11.90;99.90
8105;DHT22;4095;48.942;9.104;2023-04-29T04:08:52;11.90;99.90
8105;DHT22;4095;48.942;9.104;2023-04-29T04:11:17;11.90;99.90
8105;DHT22;4095;48.942;9.104;2023-04-29T04:13:43;11.90;99.90
8105;DHT22;4095;48.942;9.104;2023-04-29T04:16:11;11.80;99.90
8105;DHT22;4095;48.942;9.104;2023-04-29T04:18:37;11.80;99.90
8105;DHT22;4095;48.942;9.104;2023-04-29T04:21:10;11.80;99.90
8105;DHT22;4095;48.942;9.104;2023-04-29T04:23:36;11.90;99.90
8105;DHT22;4095;48.942;9.104;2023-04-29T04:26:04;11.90;99.90
8105;DHT22;4095;48.942;9.104;2023-04-29T04:28:30;11.90;99.90
8105;DHT22;4095;48.942;9.104;2023-04-29T04:30:56;12.00;99.90
8105;DHT22;4095;48.942;9.104;2023-04-29T04:33:21;12.10;99.90
8105;DHT22;4095;48.942;9.104;2023-04-29T04:35:47;12.00;99.90
8105;DHT22;4095;48.942;9.104;2023-04-29T04:38:13;12.10;99.90
8105;DHT22;4095;48.942;9.104;2023-04-29T04:40:43;12.20;99.90
8105;DHT22;4095;48.942;9.104;2023-04-29T04:43:08;12.20;99.90
8105;DHT22;4095;48.942;9.104;2023-04-29T04:45:34;12.30;99.90
8105;DHT22;4095;48.942;9.104;2023-04-29T04:48:01;12.30;99.90
8105;DHT22;4095;48.942;9.104;2023-04-29T04:50:27;12.40;99.90
8105;DHT22;4095;48.942;9.104;2023-04-29T04:52:56;12.50;99.90
8105;DHT22;4095;48.942;9.104;2023-04-29T04:55:22;12.50;99.90
8105;DHT22;4095;48.942;9.104;2023-04-29T04:57:48;12.60;99.90
8105;DHT22;4095;48.942;9.104;2023-04-29T05:00:14;12.60;99.90
8105;DHT22;4095;48.942;9.104;2023-04-29T05:02:39;12.70;99.90
8105;DHT22;4095;48.942;9.104;2023-04-29T05:05:05;12.70;99.90
8105;DHT22;4095;48.942;9.104;2023-04-29T05:07:34;12.70;99.90
8105;DHT22;4095;48.942;9.104;2023-04-29T05:10:02;12.70;99.90
8105;DHT22;4095;48.942;9.104;2023-04-29T05:12:28;12.70;99.90
8105;DHT22;4095;48.942;9.104;2023-04-29T05:14:57;12.70;99.90
8105;DHT22;4095;48.942;9.104;2023-04-29T05:17:23;12.80;99.90
8105;DHT22;4095;48.942;9.104;2023-04-29T05:19:48;12.90;99.90
8105;DHT22;4095;48.942;9.104;2023-04-29T05:22:15;12.90;99.90
8105;DHT22;4095;48.942;9.104;2023-04-29T05:24:40;13.00;99.90
8105;DHT22;4095;48.942;9.104;2023-04-29T05:27:06;13.10;99.90
8105;DHT22;4095;48.942;9.104;2023-04-29T05:29:31;13.20;99.90
8105;DHT22;4095;48.942;9.104;2023-04-29T05:31:57;13.30;99.90
8105;DHT22;4095;48.942;9.104;2023-04-29T05:34:23;13.40;99.90
8105;DHT22;4095;48.942;9.104;2023-04-29T05:36:48;13.40;99.90
8105;DHT22;4095;48.942;9.104;2023-04-29T05:39:14;13.50;99.90
8105;DHT22;4095;48.942;9.104;2023-04-29T05:41:40;13.60;99.90
8105;DHT22;4095;48.942;9.104;2023-04-29T05:44:05;13.70;99.90
8105;DHT22;4095;48.942;9.104;2023-04-29T05:46:31;13.70;99.90
8105;DHT22;4095;48.942;9.104;2023-04-29T05:48:56;13.80;99.90
8105;DHT22;4095;48.942;9.104;2023-04-29T05:51:22;13.80;99.90
8105;DHT22;4095;48.942;9.104;2023-04-29T05:53:47;13.90;99.90
8105;DHT22;4095;48.942;9.104;2023-04-29T05:56:13;14.00;99.90
8105;DHT22;4095;48.942;9.104;2023-04-29T05:58:38;14.00;99.90
8105;DHT22;4095;48.942;9.104;2023-04-29T06:01:04;14.10;99.90
8105;DHT22;4095;48.942;9.104;2023-04-29T06:03:30;14.20;99.90
8105;DHT22;4095;48.942;9.104;2023-04-29T06:05:55;14.20;99.90
8105;DHT22;4095;48.942;9.104;2023-04-29T06:08:21;14.30;99.90
8105;DHT22;4095;48.942;9.104;2023-04-29T06:10:47;14.30;99.90
8105;DHT22;4095;48.942;9.104;2023-04-29T06:13:16;14.40;99.90
8105;DHT22;4095;48.942;9.104;2023-04-29T06:15:41;14.50;99.90
8105;DHT22;4095;48.942;9.104;2023-04-29T06:18:07;14.60;99.90
8105;DHT22;4095;48.942;9.104;2023-04-29T06:20:32;14.60;99.90
8105;DHT22;4095;48.942;9.104;2023-04-29T06:22:58;14.60;99.90
8105;DHT22;4095;48.942;9.104;2023-04-29T06:25:24;14.70;99.90
8105;DHT22;4095;48.942;9.104;2023-04-29T06:27:49;14.70;99.90
8105;DHT22;4095;48.942;9.104;2023-04-29T06:30:15;14.70;99.90
8105;DHT22;4095;48.942;9.104;2023-04-29T06:32:40;14.70;99.90
8105;DHT22;4095;48.942;9.104;2023-04-29T06:35:06;14.70;99.90
8105;DHT22;4095;48.942;9.104;2023-04-29T06:37:32;14.80;99.90
8105;DHT22;4095;48.942;9.104;2023-04-29T06:39:58;14.80;99.90
8105;DHT22;4095;48.942;9.104;2023-04-29T06:42:23;14.80;99.90
8105;DHT22;4095;48.942;9.104;2023-04-29T06:44:49;14.80;99.90
8105;DHT22;4095;48.942;9.104;2023-04-29T06:47:15;14.90;99.90
8105;DHT22;4095;48.942;9.104;2023-04-29T06:49:40;14.90;99.90
8105;DHT22;4095;48.942;9.104;2023-04-29T06:52:08;15.00;99.90
8105;DHT22;4095;48.942;9.104;2023-04-29T06:54:33;15.10;99.90
8105;DHT22;4095;48.942;9.104;2023-04-29T06:56:59;15.20;99.90
8105;DHT22;4095;48.942;9.104;2023-04-29T06:59:25;15.20;99.90
8105;DHT22;4095;48.942;9.104;2023-04-29T07:01:50;15.30;99.90
8105;DHT22;4095;48.942;9.104;2023-04-29T07:04:16;15.30;99.90
8105;DHT22;4095;48.942;9.104;2023-04-29T07:06:42;15.40;99.90
8105;DHT22;4095;48.942;9.104;2023-04-29T07:09:11;15.40;99.90
8105;DHT22;4095;48.942;9.104;2023-04-29T07:11:38;15.30;99.90
8105;DHT22;4095;48.942;9.104;2023-04-29T07:14:04;15.40;99.90
8105;DHT22;4095;48.942;9.104;2023-04-29T07:16:29;15.30;99.90
8105;DHT22;4095;48.942;9.104;2023-04-29T07:18:55;15.40;99.90
8105;DHT22;4095;48.942;9.104;2023-04-29T07:21:20;15.40;99.90
8105;DHT22;4095;48.942;9.104;2023-04-29T07:23:46;15.30;99.90
8105;DHT22;4095;48.942;9.104;2023-04-29T07:26:13;15.30;99.90
8105;DHT22;4095;48.942;9.104;2023-04-29T07:28:39;15.30;99.90
8105;DHT22;4095;48.942;9.104;2023-04-29T07:31:05;15.30;99.90
8105;DHT22;4095;48.942;9.104;2023-04-29T07:33:32;15.20;99.90
8105;DHT22;4095;48.942;9.104;2023-04-29T07:35:58;15.20;99.90
8105;DHT22;4095;48.942;9.104;2023-04-29T07:38:23;15.30;99.90
8105;DHT22;4095;48.942;9.104;2023-04-29T07:40:49;15.30;99.90
8105;DHT22;4095;48.942;9.104;2023-04-29T07:43:14;15.30;99.90
8105;DHT22;4095;48.942;9.104;2023-04-29T07:45:40;15.30;99.90
8105;DHT22;4095;48.942;9.104;2023-04-29T07:48:06;15.20;99.90
8105;DHT22;4095;48.942;9.104;2023-04-29T07:50:35;15.30;99.90
8105;DHT22;4095;48.942;9.104;2023-04-29T07:53:04;15.30;99.90
8105;DHT22;4095;48.942;9.104;2023-04-29T07:55:30;15.40;99.90
8105;DHT22;4095;48.942;9.104;2023-04-29T07:57:56;15.50;99.90
8105;DHT22;4095;48.942;9.104;2023-04-29T08:00:22;15.50;99.90
8105;DHT22;4095;48.942;9.104;2023-04-29T08:02:52;15.50;99.90
8105;DHT22;4095;48.942;9.104;2023-04-29T08:05:18;15.60;99.90
8105;DHT22;4095;48.942;9.104;2023-04-29T08:07:46;15.60;99.90
8105;DHT22;4095;48.942;9.104;2023-04-29T08:10:11;15.60;99.90
8105;DHT22;4095;48.942;9.104;2023-04-29T08:12:37;15.70;99.90
8105;DHT22;4095;48.942;9.104;2023-04-29T08:15:03;15.70;99.90
8105;DHT22;4095;48.942;9.104;2023-04-29T08:17:29;15.70;99.90
8105;DHT22;4095;48.942;9.104;2023-04-29T08:19:54;15.70;99.90
8105;DHT22;4095;48.942;9.104;2023-04-29T08:22:21;15.60;99.90
8105;DHT22;4095;48.942;9.104;2023-04-29T08:24:46;15.70;99.90
8105;DHT22;4095;48.942;9.104;2023-04-29T08:27:13;15.80;99.90
8105;DHT22;4095;48.942;9.104;2023-04-29T08:29:39;15.90;99.90
8105;DHT22;4095;48.942;9.104;2023-04-29T08:32:06;16.00;99.90
8105;DHT22;4095;48.942;9.104;2023-04-29T08:34:32;16.10;99.90
8105;DHT22;4095;48.942;9.104;2023-04-29T08:36:58;16.30;99.90
8105;DHT22;4095;48.942;9.104;2023-04-29T08:39:23;16.40;99.90
8105;DHT22;4095;48.942;9.104;2023-04-29T08:41:50;16.50;99.90
8105;DHT22;4095;48.942;9.104;2023-04-29T08:44:17;16.60;99.90
8105;DHT22;4095;48.942;9.104;2023-04-29T08:46:44;16.50;99.90
8105;DHT22;4095;48.942;9.104;2023-04-29T08:49:11;16.50;99.90
8105;DHT22;4095;48.942;9.104;2023-04-29T08:51:37;16.50;99.90
8105;DHT22;4095;48.942;9.104;2023-04-29T08:54:03;16.50;99.90
8105;DHT22;4095;48.942;9.104;2023-04-29T08:56:29;16.50;99.90
8105;DHT22;4095;48.942;9.104;2023-04-29T08:58:56;16.50;99.90
8105;DHT22;4095;48.942;9.104;2023-04-29T09:01:27;16.50;99.90
8105;DHT22;4095;48.942;9.104;2023-04-29T09:03:54;16.50;99.90
8105;DHT22;4095;48.942;9.104;2023-04-29T09:06:21;16.50;99.90
8105;DHT22;4095;48.942;9.104;2023-04-29T09:08:47;16.60;99.90
8105;DHT22;4095;48.942;9.104;2023-04-29T09:11:13;16.50;99.90
8105;DHT22;4095;48.942;9.104;2023-04-29T09:13:40;16.50;99.90
8105;DHT22;4095;48.942;9.104;2023-04-29T09:16:12;16.40;99.90
8105;DHT22;4095;48.942;9.104;2023-04-29T09:18:49;16.20;99.90
8105;DHT22;4095;48.942;9.104;2023-04-29T09:21:23;16.10;99.90
8105;DHT22;4095;48.942;9.104;2023-04-29T09:23:54;16.00;99.90
8105;DHT22;4095;48.942;9.104;2023-04-29T09:26:21;16.00;99.90
8105;DHT22;4095;48.942;9.104;2023-04-29T09:29:04;16.10;99.90
8105;DHT22;4095;48.942;9.104;2023-04-29T09:31:30;16.20;99.90
8105;DHT22;4095;48.942;9.104;2023-04-29T09:33:56;16.30;99.90
8105;DHT22;4095;48.942;9.104;2023-04-29T09:36:45;16.50;99.90
8105;DHT22;4095;48.942;9.104;2023-04-29T09:39:17;16.50;99.90
8105;DHT22;4095;48.942;9.104;2023-04-29T09:44:30;16.50;99.90
8105;DHT22;4095;48.942;9.104;2023-04-29T09:47:03;16.40;99.90
8105;DHT22;4095;48.942;9.104;2023-04-29T09:51:58;16.20;99.90
8105;DHT22;4095;48.942;9.104;2023-04-29T09:54:26;16.30;99.90
8105;DHT22;4095;48.942;9.104;2023-04-29T09:56:59;16.20;99.90
8105;DHT22;4095;48.942;9.104;2023-04-29T09:59:25;16.10;99.90
8105;DHT22;4095;48.942;9.104;2023-04-29T10:01:53;16.20;99.90
8105;DHT22;4095;48.942;9.104;2023-04-29T10:04:21;16.20;99.90
8105;DHT22;4095;48.942;9.104;2023-04-29T10:06:49;16.20;99.90
8105;DHT22;4095;48.942;9.104;2023-04-29T10:09:17;16.30;99.90
8105;DHT22;4095;48.942;9.104;2023-04-29T10:11:47;16.30;99.90
8105;DHT22;4095;48.942;9.104;2023-04-29T10:14:18;16.40;99.90
8105;DHT22;4095;48.942;9.104;2023-04-29T10:16:47;16.40;99.90
8105;DHT22;4095;48.942;9.104;2023-04-29T10:19:26;16.30;99.90
8105;DHT22;4095;48.942;9.104;2023-04-29T10:21:57;16.30;99.90
8105;DHT22;4095;48.942;9.104;2023-04-29T10:24:25;16.30;99.90
8105;DHT22;4095;48.942;9.104;2023-04-29T10:26:51;16.30;99.90
8105;DHT22;4095;48.942;9.104;2023-04-29T10:29:18;16.20;99.90
8105;DHT22;4095;48.942;9.104;2023-04-29T10:31:46;16.20;99.90
8105;DHT22;4095;48.942;9.104;2023-04-29T10:34:13;16.20;99.90
8105;DHT22;4095;48.942;9.104;2023-04-29T10:36:40;16.20;99.90
8105;DHT22;4095;48.942;9.104;2023-04-29T10:39:10;16.30;99.90
8105;DHT22;4095;48.942;9.104;2023-04-29T10:41:50;16.50;99.90
8105;DHT22;4095;48.942;9.104;2023-04-29T10:44:16;16.60;99.90
8105;DHT22;4095;48.942;9.104;2023-04-29T10:46:41;16.70;99.90
8105;DHT22;4095;48.942;9.104;2023-04-29T10:49:07;16.80;99.90
8105;DHT22;4095;48.942;9.104;2023-04-29T10:51:39;16.90;99.90
8105;DHT22;4095;48.942;9.104;2023-04-29T10:54:07;16.90;99.90
8105;DHT22;4095;48.942;9.104;2023-04-29T10:56:50;17.00;99.90
8105;DHT22;4095;48.942;9.104;2023-04-29T11:01:52;16.80;99.90
8105;DHT22;4095;48.942;9.104;2023-04-29T11:04:21;16.90;99.90
8105;DHT22;4095;48.942;9.104;2023-04-29T11:06:54;17.30;99.90
8105;DHT22;4095;48.942;9.104;2023-04-29T11:14:24;18.30;99.90
8105;DHT22;4095;48.942;9.104;2023-04-29T11:16:58;18.30;99.90
8105;DHT22;4095;48.942;9.104;2023-04-29T11:19:29;18.20;99.90
8105;DHT22;4095;48.942;9.104;2023-04-29T11:24:56;18.00;99.90
8105;DHT22;4095;48.942;9.104;2023-04-29T11:27:24;17.90;99.90
8105;DHT22;4095;48.942;9.104;2023-04-29T11:29:51;17.80;99.90
8105;DHT22;4095;48.942;9.104;2023-04-29T11:32:21;17.60;99.90
8105;DHT22;4095;48.942;9.104;2023-04-29T11:34:47;17.50;99.90
8105;DHT22;4095;48.942;9.104;2023-04-29T11:37:21;17.50;99.90
8105;DHT22;4095;48.942;9.104;2023-04-29T11:39:48;17.30;99.90
8105;DHT22;4095;48.942;9.104;2023-04-29T11:42:19;17.20;99.90
8105;DHT22;4095;48.942;9.104;2023-04-29T11:44:44;17.20;99.90
8105;DHT22;4095;48.942;9.104;2023-04-29T11:47:10;17.20;99.90
8105;DHT22;4095;48.942;9.104;2023-04-29T11:49:36;17.20;99.90
8105;DHT22;4095;48.942;9.104;2023-04-29T11:52:02;17.20;99.90
8105;DHT22;4095;48.942;9.104;2023-04-29T11:54:29;17.20;99.90
8105;DHT22;4095;48.942;9.104;2023-04-29T11:56:55;17.20;99.90
8105;DHT22;4095;48.942;9.104;2023-04-29T11:59:22;17.20;99.90
8105;DHT22;4095;48.942;9.104;2023-04-29T12:01:51;17.20;99.90
8105;DHT22;4095;48.942;9.104;2023-04-29T12:04:17;17.30;99.90
8105;DHT22;4095;48.942;9.104;2023-04-29T12:06:44;17.30;99.90
8105;DHT22;4095;48.942;9.104;2023-04-29T12:09:09;17.20;99.90
8105;DHT22;4095;48.942;9.104;2023-04-29T12:11:36;17.20;99.90
8105;DHT22;4095;48.942;9.104;2023-04-29T12:14:02;17.20;99.90
8105;DHT22;4095;48.942;9.104;2023-04-29T12:16:31;17.10;99.90
8105;DHT22;4095;48.942;9.104;2023-04-29T12:18:58;17.10;99.90
8105;DHT22;4095;48.942;9.104;2023-04-29T12:21:24;17.00;99.90
8105;DHT22;4095;48.942;9.104;2023-04-29T12:23:50;17.00;99.90
8105;DHT22;4095;48.942;9.104;2023-04-29T12:26:16;17.10;99.90
8105;DHT22;4095;48.942;9.104;2023-04-29T12:28:43;17.10;99.90
8105;DHT22;4095;48.942;9.104;2023-04-29T12:31:09;17.10;99.90
8105;DHT22;4095;48.942;9.104;2023-04-29T12:33:42;17.10;99.90
8105;DHT22;4095;48.942;9.104;2023-04-29T12:36:15;17.10;99.90
8105;DHT22;4095;48.942;9.104;2023-04-29T12:38:42;17.10;99.90
8105;DHT22;4095;48.942;9.104;2023-04-29T12:41:08;17.20;99.90
8105;DHT22;4095;48.942;9.104;2023-04-29T12:43:33;17.30;99.90
8105;DHT22;4095;48.942;9.104;2023-04-29T12:46:06;17.30;99.90
8105;DHT22;4095;48.942;9.104;2023-04-29T12:48:33;17.30;99.90
8105;DHT22;4095;48.942;9.104;2023-04-29T12:51:00;17.30;99.90
8105;DHT22;4095;48.942;9.104;2023-04-29T12:53:26;17.20;99.90
8105;DHT22;4095;48.942;9.104;2023-04-29T12:55:52;17.20;99.90
8105;DHT22;4095;48.942;9.104;2023-04-29T12:58:18;17.20;99.90
8105;DHT22;4095;48.942;9.104;2023-04-29T13:00:43;17.20;99.90
8105;DHT22;4095;48.942;9.104;2023-04-29T13:03:09;17.20;99.90
8105;DHT22;4095;48.942;9.104;2023-04-29T13:05:35;17.20;99.90
8105;DHT22;4095;48.942;9.104;2023-04-29T13:08:00;17.20;99.90
8105;DHT22;4095;48.942;9.104;2023-04-29T13:10:26;17.20;99.90
8105;DHT22;4095;48.942;9.104;2023-04-29T13:12:55;17.30;99.90
8105;DHT22;4095;48.942;9.104;2023-04-29T13:15:21;17.40;99.90
8105;DHT22;4095;48.942;9.104;2023-04-29T13:17:47;17.40;99.90
8105;DHT22;4095;48.942;9.104;2023-04-29T13:20:13;17.50;99.90
8105;DHT22;4095;48.942;9.104;2023-04-29T13:22:40;17.70;99.90
8105;DHT22;4095;48.942;9.104;2023-04-29T13:25:08;17.80;99.90
8105;DHT22;4095;48.942;9.104;2023-04-29T13:27:34;17.70;99.90
8105;DHT22;4095;48.942;9.104;2023-04-29T13:30:00;17.80;99.90
8105;DHT22;4095;48.942;9.104;2023-04-29T13:32:25;17.90;99.90
8105;DHT22;4095;48.942;9.104;2023-04-29T13:34:51;17.90;99.90
8105;DHT22;4095;48.942;9.104;2023-04-29T13:37:17;18.00;99.90
8105;DHT22;4095;48.942;9.104;2023-04-29T13:39:44;18.10;99.90
8105;DHT22;4095;48.942;9.104;2023-04-29T13:42:09;18.10;99.90
8105;DHT22;4095;48.942;9.104;2023-04-29T13:44:35;18.20;99.90
8105;DHT22;4095;48.942;9.104;2023-04-29T13:47:01;18.20;99.90
8105;DHT22;4095;48.942;9.104;2023-04-29T13:49:28;18.20;99.90
8105;DHT22;4095;48.942;9.104;2023-04-29T13:51:53;18.20;99.90
8105;DHT22;4095;48.942;9.104;2023-04-29T13:54:19;18.30;99.90
8105;DHT22;4095;48.942;9.104;2023-04-29T13:56:46;18.30;99.90
8105;DHT22;4095;48.942;9.104;2023-04-29T13:59:12;18.20;99.20
8105;DHT22;4095;48.942;9.104;2023-04-29T14:01:38;18.20;99.60
8105;DHT22;4095;48.942;9.104;2023-04-29T14:04:03;18.10;99.80
8105;DHT22;4095;48.942;9.104;2023-04-29T14:06:29;18.10;99.90
8105;DHT22;4095;48.942;9.104;2023-04-29T14:08:57;18.10;99.90
8105;DHT22;4095;48.942;9.104;2023-04-29T14:11:22;18.00;99.90
8105;DHT22;4095;48.942;9.104;2023-04-29T14:13:48;17.90;99.90
8105;DHT22;4095;48.942;9.104;2023-04-29T14:16:14;17.80;99.90
8105;DHT22;4095;48.942;9.104;2023-04-29T14:18:39;17.80;99.90
8105;DHT22;4095;48.942;9.104;2023-04-29T14:21:05;17.70;99.90
8105;DHT22;4095;48.942;9.104;2023-04-29T14:23:30;17.70;99.90
8105;DHT22;4095;48.942;9.104;2023-04-29T14:25:56;17.60;99.90
8105;DHT22;4095;48.942;9.104;2023-04-29T14:28:22;17.60;99.90
8105;DHT22;4095;48.942;9.104;2023-04-29T14:30:47;17.60;99.90
8105;DHT22;4095;48.942;9.104;2023-04-29T14:33:13;17.50;99.90
8105;DHT22;4095;48.942;9.104;2023-04-29T14:35:38;17.50;99.90
8105;DHT22;4095;48.942;9.104;2023-04-29T14:38:04;17.50;99.90
8105;DHT22;4095;48.942;9.104;2023-04-29T14:40:29;17.40;99.90
8105;DHT22;4095;48.942;9.104;2023-04-29T14:42:55;17.30;99.90
8105;DHT22;4095;48.942;9.104;2023-04-29T14:45:20;17.30;99.90
8105;DHT22;4095;48.942;9.104;2023-04-29T14:47:46;17.30;99.90
8105;DHT22;4095;48.942;9.104;2023-04-29T14:50:12;17.20;99.90
8105;DHT22;4095;48.942;9.104;2023-04-29T14:52:38;17.30;99.90
8105;DHT22;4095;48.942;9.104;2023-04-29T14:55:03;17.40;99.90
8105;DHT22;4095;48.942;9.104;2023-04-29T14:57:29;17.40;99.90
8105;DHT22;4095;48.942;9.104;2023-04-29T14:59:55;17.40;99.90
8105;DHT22;4095;48.942;9.104;2023-04-29T15:02:21;17.50;99.90
8105;DHT22;4095;48.942;9.104;2023-04-29T15:04:46;17.50;99.90
8105;DHT22;4095;48.942;9.104;2023-04-29T15:07:13;17.50;99.90
8105;DHT22;4095;48.942;9.104;2023-04-29T15:09:40;17.50;99.90
8105;DHT22;4095;48.942;9.104;2023-04-29T15:12:06;17.50;99.90
8105;DHT22;4095;48.942;9.104;2023-04-29T15:14:32;17.40;99.90
8105;DHT22;4095;48.942;9.104;2023-04-29T15:16:58;17.40;99.90
8105;DHT22;4095;48.942;9.104;2023-04-29T15:19:24;17.50;99.90
8105;DHT22;4095;48.942;9.104;2023-04-29T15:21:50;17.50;99.90
8105;DHT22;4095;48.942;9.104;2023-04-29T15:24:17;17.50;99.90
8105;DHT22;4095;48.942;9.104;2023-04-29T15:26:42;17.50;99.90
8105;DHT22;4095;48.942;9.104;2023-04-29T15:29:08;17.50;99.90
8105;DHT22;4095;48.942;9.104;2023-04-29T15:31:34;17.60;99.90
8105;DHT22;4095;48.942;9.104;2023-04-29T15:33:59;17.50;99.90
8105;DHT22;4095;48.942;9.104;2023-04-29T15:36:31;17.60;99.90
8105;DHT22;4095;48.942;9.104;2023-04-29T15:38:59;17.50;99.90
8105;DHT22;4095;48.942;9.104;2023-04-29T15:41:25;17.50;99.90
8105;DHT22;4095;48.942;9.104;2023-04-29T15:43:51;17.50;99.90
8105;DHT22;4095;48.942;9.104;2023-04-29T15:46:17;17.50;99.90
8105;DHT22;4095;48.942;9.104;2023-04-29T15:48:43;17.50;99.90
8105;DHT22;4095;48.942;9.104;2023-04-29T15:51:09;17.50;99.90
8105;DHT22;4095;48.942;9.104;2023-04-29T15:53:38;17.50;99.90
8105;DHT22;4095;48.942;9.104;2023-04-29T15:56:04;17.50;99.90
8105;DHT22;4095;48.942;9.104;2023-04-29T15:58:29;17.50;99.90
8105;DHT22;4095;48.942;9.104;2023-04-29T16:00:55;17.40;99.90
8105;DHT22;4095;48.942;9.104;2023-04-29T16:03:20;17.40;99.90
8105;DHT22;4095;48.942;9.104;2023-04-29T16:05:46;17.30;99.90
8105;DHT22;4095;48.942;9.104;2023-04-29T16:08:13;17.30;99.90
8105;DHT22;4095;48.942;9.104;2023-04-29T16:10:39;17.20;99.90
8105;DHT22;4095;48.942;9.104;2023-04-29T16:13:05;17.20;99.90
8105;DHT22;4095;48.942;9.104;2023-04-29T16:15:30;17.10;99.90
8105;DHT22;4095;48.942;9.104;2023-04-29T16:17:56;17.10;99.90
8105;DHT22;4095;48.942;9.104;2023-04-29T16:20:21;17.00;99.90
8105;DHT22;4095;48.942;9.104;2023-04-29T16:22:47;16.90;99.90
8105;DHT22;4095;48.942;9.104;2023-04-29T16:25:13;16.90;99.90
8105;DHT22;4095;48.942;9.104;2023-04-29T16:27:38;16.80;99.90